createdAt,value
2023-04-16T00:01:33.883Z,98730.03
2023-04-16T00:04:06.794Z,98722.25
2023-04-16T00:06:35.668Z,98729.22
2023-04-16T00:09:04.497Z,98724.81
2023-04-16T00:11:33.254Z,98726.88
2023-04-16T00:14:01.924Z,98732.38
2023-04-16T00:16:30.948Z,98732.63
2023-04-16T00:18:59.688Z,98737.88
2023-04-16T00:21:30.094Z,98733.50
2023-04-16T00:23:58.894Z,98727.94
2023-04-16T00:26:27.522Z,98734.88
2023-04-16T00:28:56.477Z,98741.03
2023-04-16T00:31:29.915Z,98740.47
2023-04-16T00:33:59.371Z,98743.06
2023-04-16T00:36:30.348Z,98748.25
2023-04-16T00:38:59.167Z,98747.56
2023-04-16T00:41:27.983Z,98743.94
2023-04-16T00:43:56.611Z,98752.66
2023-04-16T00:46:27.091Z,98752.41
2023-04-16T00:48:56.948Z,98749.63
2023-04-16T00:51:27.152Z,98755.75
2023-04-16T00:53:59.377Z,98753.97
2023-04-16T00:56:29.498Z,98756.75
2023-04-16T00:58:58.313Z,98753.53
2023-04-16T01:01:27.347Z,98755.72
2023-04-16T01:03:57.130Z,98744.91
2023-04-16T01:06:26.101Z,98753.97
2023-04-16T01:08:54.853Z,98753.53
2023-04-16T01:11:25.828Z,98756.09
2023-04-16T01:13:54.559Z,98754.84
2023-04-16T01:16:23.365Z,98766.19
2023-04-16T01:18:52.164Z,98755.09
2023-04-16T01:21:23.056Z,98757.72
2023-04-16T01:23:51.788Z,98759.50
2023-04-16T01:26:20.564Z,98755.09
2023-04-16T01:28:49.400Z,98763.69
2023-04-16T01:31:18.233Z,98759.97
2023-04-16T01:34:05.639Z,98759.44
2023-04-16T01:36:38.083Z,98761.06
2023-04-16T01:39:06.960Z,98765.38
2023-04-16T01:41:36.245Z,98765.38
2023-04-16T01:44:06.502Z,98767.94
2023-04-16T01:46:36.849Z,98773.22
2023-04-16T01:49:07.604Z,98774.19
2023-04-16T01:51:37.855Z,98769.34
2023-04-16T01:54:06.627Z,98770.84
2023-04-16T01:56:35.403Z,98767.56
2023-04-16T01:59:04.085Z,98768.88
2023-04-16T02:01:38.518Z,98771.56
2023-04-16T02:04:08.380Z,98771.31
2023-04-16T02:06:38.573Z,98775.59
2023-04-16T02:09:07.587Z,98775.69
2023-04-16T02:11:38.674Z,98774.34
2023-04-16T02:14:08.604Z,98775.81
2023-04-16T02:16:38.078Z,98787.31
2023-04-16T02:19:37.212Z,98777.94
2023-04-16T02:22:07.904Z,98791.78
2023-04-16T02:24:36.702Z,98789.53
2023-04-16T02:27:09.460Z,98790.13
2023-04-16T02:29:38.202Z,98784.31
2023-04-16T02:32:14.057Z,98782.03
2023-04-16T02:34:46.352Z,98792.06
2023-04-16T02:37:17.329Z,98785.56
2023-04-16T02:39:47.494Z,98801.09
2023-04-16T02:42:16.882Z,98795.94
2023-04-16T02:44:46.756Z,98794.50
2023-04-16T02:47:15.630Z,98799.59
2023-04-16T02:49:44.323Z,98788.72
2023-04-16T02:52:15.109Z,98796.72
2023-04-16T02:54:45.857Z,98797.34
2023-04-16T02:57:14.497Z,98800.69
2023-04-16T02:59:43.235Z,98812.22
2023-04-16T03:02:12.263Z,98810.19
2023-04-16T03:04:41.008Z,98805.34
2023-04-16T03:07:09.912Z,98811.91
2023-04-16T03:09:38.650Z,98815.34
2023-04-16T03:12:08.958Z,98810.38
2023-04-16T03:14:37.740Z,98811.16
2023-04-16T03:17:06.474Z,98809.13
2023-04-16T03:19:35.216Z,98807.75
2023-04-16T03:22:03.897Z,98813.78
2023-04-16T03:24:32.594Z,98815.75
2023-04-16T03:27:02.097Z,98812.28
2023-04-16T03:29:33.738Z,98820.09
2023-04-16T03:32:02.605Z,98824.97
2023-04-16T03:34:31.263Z,98837.03
2023-04-16T03:37:00.287Z,98840.91
2023-04-16T03:39:28.967Z,98836.63
2023-04-16T03:41:57.820Z,98831.88
2023-04-16T03:44:26.528Z,98840.91
2023-04-16T03:46:57.095Z,98834.34
2023-04-16T03:49:25.919Z,98842.75
2023-04-16T03:51:54.677Z,98847.06
2023-04-16T03:54:23.465Z,98851.16
2023-04-16T03:57:00.125Z,98847.66
2023-04-16T03:59:28.928Z,98847.66
2023-04-16T04:01:59.240Z,98854.03
2023-04-16T04:04:28.301Z,98858.53
2023-04-16T04:06:57.058Z,98864.06
2023-04-16T04:09:28.280Z,98867.19
2023-04-16T04:11:57.108Z,98862.69
2023-04-16T04:14:25.861Z,98868.19
2023-04-16T04:16:54.768Z,98871.66
2023-04-16T04:19:25.467Z,98870.44
2023-04-16T04:21:54.713Z,98876.59
2023-04-16T04:24:24.553Z,98877.63
2023-04-16T04:26:54.436Z,98875.56
2023-04-16T04:29:24.932Z,98877.06
2023-04-16T04:31:55.312Z,98879.31
2023-04-16T04:34:27.256Z,98874.41
2023-04-16T04:37:01.068Z,98883.78
2023-04-16T04:39:31.156Z,98882.94
2023-04-16T04:42:03.208Z,98882.13
2023-04-16T04:44:32.446Z,98886.41
2023-04-16T04:47:01.923Z,98888.69
2023-04-16T04:49:33.925Z,98888.94
2023-04-16T04:52:03.292Z,98892.81
2023-04-16T04:54:34.688Z,98897.50
2023-04-16T04:57:03.879Z,98890.94
2023-04-16T04:59:33.410Z,98890.09
2023-04-16T05:02:03.584Z,98891.13
2023-04-16T05:04:34.046Z,98902.38
2023-04-16T05:07:03.309Z,98899.94
2023-04-16T05:09:32.876Z,98901.97
2023-04-16T05:12:02.143Z,98903.78
2023-04-16T05:14:32.395Z,98912.19
2023-04-16T05:17:01.785Z,98915.44
2023-04-16T05:19:33.651Z,98912.34
2023-04-16T05:22:02.798Z,98916.88
2023-04-16T05:24:34.748Z,98916.47
2023-04-16T05:27:03.565Z,98915.44
2023-04-16T05:29:32.312Z,98918.09
2023-04-16T05:32:02.122Z,98919.16
2023-04-16T05:34:31.170Z,98922.03
2023-04-16T05:37:01.361Z,98926.50
2023-04-16T05:39:34.852Z,98933.50
2023-04-16T05:42:03.800Z,98932.25
2023-04-16T05:44:32.617Z,98929.56
2023-04-16T05:47:02.730Z,98938.34
2023-04-16T05:49:31.645Z,98942.22
2023-04-16T05:52:01.926Z,98945.31
2023-04-16T05:54:30.949Z,98942.00
2023-04-16T05:56:59.663Z,98946.09
2023-04-16T05:59:29.368Z,98953.50
2023-04-16T06:01:58.425Z,98949.81
2023-04-16T06:04:27.234Z,98956.16
2023-04-16T06:06:56.116Z,98952.47
2023-04-16T06:09:27.040Z,98957.16
2023-04-16T06:11:56.388Z,98961.22
2023-04-16T06:14:25.492Z,98959.56
2023-04-16T06:17:05.188Z,98957.91
2023-04-16T06:19:34.329Z,98963.22
2023-04-16T06:22:03.219Z,98961.94
2023-04-16T06:24:33.524Z,98969.69
2023-04-16T06:27:04.278Z,98962.75
2023-04-16T06:29:40.673Z,98970.91
2023-04-16T06:32:11.955Z,98966.84
2023-04-16T06:34:41.639Z,98966.81
2023-04-16T06:37:11.521Z,98966.78
2023-04-16T06:39:42.615Z,98960.13
2023-04-16T06:42:12.181Z,98966.63
2023-04-16T06:44:45.477Z,98965.53
2023-04-16T06:47:26.307Z,98971.22
2023-04-16T06:49:56.542Z,98961.13
2023-04-16T06:52:28.400Z,98957.31
2023-04-16T06:54:59.134Z,98965.84
2023-04-16T06:57:32.585Z,98965.16
2023-04-16T07:00:02.324Z,98961.78
2023-04-16T07:02:32.756Z,98957.84
2023-04-16T07:05:04.982Z,98957.34
2023-04-16T07:07:34.374Z,98953.16
2023-04-16T07:10:11.083Z,98957.63
2023-04-16T07:12:48.553Z,98957.94
2023-04-16T07:15:18.437Z,98956.22
2023-04-16T07:17:50.211Z,98961.50
2023-04-16T07:20:19.287Z,98964.31
2023-04-16T07:22:49.832Z,98964.91
2023-04-16T07:25:21.027Z,98967.50
2023-04-16T07:27:52.497Z,98966.31
2023-04-16T07:30:22.837Z,98967.09
2023-04-16T07:32:53.619Z,98975.97
2023-04-16T07:35:22.971Z,98974.88
2023-04-16T07:37:54.733Z,98967.09
2023-04-16T07:40:26.638Z,98971.09
2023-04-16T07:42:57.075Z,98971.91
2023-04-16T07:48:14.869Z,98981.41
2023-04-16T07:50:45.367Z,98981.53
2023-04-16T07:53:14.866Z,98985.63
2023-04-16T07:55:45.214Z,98981.59
2023-04-16T07:58:14.607Z,98989.53
2023-04-16T08:00:43.762Z,98986.38
2023-04-16T08:03:13.012Z,98990.22
2023-04-16T08:05:42.479Z,98990.09
2023-04-16T08:08:11.643Z,98991.13
2023-04-16T08:10:41.037Z,98992.25
2023-04-16T08:13:14.147Z,98987.66
2023-04-16T08:15:43.633Z,98992.28
2023-04-16T08:18:15.802Z,98986.78
2023-04-16T08:20:45.336Z,98999.34
2023-04-16T08:23:14.607Z,98990.66
2023-04-16T08:25:43.921Z,99005.22
2023-04-16T08:28:14.827Z,98997.72
2023-04-16T08:30:46.204Z,99008.28
2023-04-16T08:33:15.659Z,99008.47
2023-04-16T08:35:44.900Z,99011.78
2023-04-16T08:38:15.243Z,99014.75
2023-04-16T08:40:44.844Z,99017.78
2023-04-16T08:43:19.481Z,99018.88
2023-04-16T08:45:50.616Z,99025.66
2023-04-16T08:48:23.047Z,99030.78
2023-04-16T08:50:55.615Z,99035.91
2023-04-16T08:53:34.162Z,99036.72
2023-04-16T08:56:11.162Z,99036.97
2023-04-16T08:58:43.791Z,99036.41
2023-04-16T09:01:15.752Z,99041.19
2023-04-16T09:03:48.516Z,99039.91
2023-04-16T09:06:20.922Z,99041.03
2023-04-16T09:08:51.995Z,99047.63
2023-04-16T09:11:22.415Z,99042.91
2023-04-16T09:13:55.743Z,99039.75
2023-04-16T09:16:28.074Z,99046.19
2023-04-16T09:18:57.421Z,99046.41
2023-04-16T09:21:28.820Z,99046.81
2023-04-16T09:24:03.467Z,99053.19
2023-04-16T09:26:37.652Z,99054.25
2023-04-16T09:29:10.196Z,99055.19
2023-04-16T09:31:44.119Z,99055.88
2023-04-16T09:34:14.355Z,99059.66
2023-04-16T09:36:45.727Z,99060.47
2023-04-16T09:39:21.151Z,99067.44
2023-04-16T09:41:53.197Z,99064.41
2023-04-16T09:44:42.009Z,99067.97
2023-04-16T09:47:13.113Z,99070.41
2023-04-16T09:49:47.875Z,99084.09
2023-04-16T09:52:21.377Z,99079.06
2023-04-16T09:54:55.223Z,99072.53
2023-04-16T09:57:26.608Z,99075.31
2023-04-16T10:00:07.241Z,99073.53
2023-04-16T10:02:39.611Z,99075.53
2023-04-16T10:05:10.923Z,99071.88
2023-04-16T10:07:42.149Z,99080.78
2023-04-16T10:10:16.505Z,99082.47
2023-04-16T10:12:45.276Z,99085.16
2023-04-16T10:15:17.236Z,99088.66
2023-04-16T10:17:47.145Z,99093.06
2023-04-16T10:20:17.670Z,99086.69
2023-04-16T10:22:47.341Z,99091.56
2023-04-16T10:25:16.724Z,99093.34
2023-04-16T10:27:46.425Z,99089.41
2023-04-16T10:30:18.874Z,99092.91
2023-04-16T10:32:48.615Z,99092.50
2023-04-16T10:35:21.083Z,99093.81
2023-04-16T10:37:51.586Z,99100.31
2023-04-16T10:40:30.348Z,99096.09
2023-04-16T10:43:01.634Z,99098.53
2023-04-16T10:45:39.465Z,99093.34
2023-04-16T10:48:10.089Z,99091.94
2023-04-16T10:50:39.849Z,99092.81
2023-04-16T10:53:25.119Z,99094.00
2023-04-16T10:56:14.573Z,99096.06
2023-04-16T10:58:44.105Z,99101.66
2023-04-16T11:01:16.994Z,99099.47
2023-04-16T11:03:49.010Z,99095.19
2023-04-16T11:06:26.516Z,99107.00
2023-04-16T11:08:56.273Z,99104.41
2023-04-16T11:11:25.423Z,99100.22
2023-04-16T11:14:09.108Z,99099.31
2023-04-16T11:16:42.949Z,99096.72
2023-04-16T11:19:19.167Z,99093.44
2023-04-16T11:21:48.429Z,99092.59
2023-04-16T11:24:17.502Z,99091.94
2023-04-16T11:26:46.353Z,99094.13
2023-04-16T11:29:17.215Z,99097.97
2023-04-16T11:31:53.245Z,99091.03
2023-04-16T11:34:23.476Z,99099.25
2023-04-16T11:36:54.169Z,99099.50
2023-04-16T11:39:24.288Z,99094.50
2023-04-16T11:41:53.938Z,99103.16
2023-04-16T11:44:28.195Z,99091.63
2023-04-16T11:47:08.066Z,99093.06
2023-04-16T11:49:37.668Z,99095.09
2023-04-16T11:52:07.300Z,99092.19
2023-04-16T11:54:37.271Z,99094.91
2023-04-16T11:57:06.287Z,99093.28
2023-04-16T11:59:37.102Z,99089.22
2023-04-16T12:02:40.136Z,99091.59
2023-04-16T12:05:30.414Z,99094.75
2023-04-16T12:08:00.596Z,99089.84
2023-04-16T12:10:29.809Z,99092.16
2023-04-16T12:13:15.416Z,99097.09
2023-04-16T12:15:50.891Z,99088.75
2023-04-16T12:18:22.527Z,99096.56
2023-04-16T12:20:52.091Z,99097.69
2023-04-16T12:23:29.137Z,99086.06
2023-04-16T12:26:02.699Z,99102.53
2023-04-16T12:28:34.361Z,99094.97
2023-04-16T12:31:05.851Z,99092.50
2023-04-16T12:33:34.910Z,99095.50
2023-04-16T12:36:18.528Z,99098.41
2023-04-16T12:38:47.253Z,99098.13
2023-04-16T12:41:17.025Z,99095.91
2023-04-16T12:43:45.795Z,99096.91
2023-04-16T12:46:15.977Z,99099.03
2023-04-16T12:48:44.813Z,99097.97
2023-04-16T12:51:13.700Z,99092.03
2023-04-16T12:53:42.384Z,99100.91
2023-04-16T12:56:11.040Z,99100.88
2023-04-16T12:58:39.674Z,99102.75
2023-04-16T13:01:08.478Z,99102.84
2023-04-16T13:03:38.846Z,99105.53
2023-04-16T13:06:07.735Z,99105.41
2023-04-16T13:08:37.428Z,99103.03
2023-04-16T13:11:06.308Z,99096.03
2023-04-16T13:13:35.163Z,99103.88
2023-04-16T13:16:06.887Z,99098.34
2023-04-16T13:18:38.141Z,99098.56
2023-04-16T13:21:06.999Z,99094.44
2023-04-16T13:23:36.654Z,99099.75
2023-04-16T13:26:05.490Z,99105.25
2023-04-16T13:28:34.238Z,99107.97
2023-04-16T13:31:05.726Z,99106.31
2023-04-16T13:33:35.357Z,99110.66
2023-04-16T13:36:05.834Z,99110.63
2023-04-16T13:38:34.612Z,99117.34
2023-04-16T13:41:03.311Z,99114.09
2023-04-16T13:43:32.179Z,99111.13
2023-04-16T13:46:01.182Z,99112.19
2023-04-16T13:48:30.865Z,99113.75
2023-04-16T13:50:59.837Z,99121.38
2023-04-16T13:53:30.026Z,99120.78
2023-04-16T13:55:58.967Z,99117.53
2023-04-16T13:58:28.878Z,99115.91
2023-04-16T14:00:58.377Z,99122.56
2023-04-16T14:03:28.125Z,99120.88
2023-04-16T14:05:57.092Z,99122.44
2023-04-16T14:08:27.163Z,99121.88
2023-04-16T14:10:58.380Z,99119.78
2023-04-16T14:13:27.693Z,99121.66
2023-04-16T14:15:57.228Z,99126.03
2023-04-16T14:18:26.005Z,99128.25
2023-04-16T14:20:56.959Z,99120.25
2023-04-16T14:23:26.683Z,99122.69
2023-04-16T14:25:56.983Z,99130.84
2023-04-16T14:28:25.693Z,99131.63
2023-04-16T14:30:54.487Z,99129.94
2023-04-16T14:33:23.830Z,99131.94
2023-04-16T14:35:52.738Z,99136.63
2023-04-16T14:38:21.501Z,99132.75
2023-04-16T14:40:50.604Z,99136.34
2023-04-16T14:43:20.926Z,99135.84
2023-04-16T14:45:49.731Z,99138.19
2023-04-16T14:48:18.647Z,99136.84
2023-04-16T14:50:47.564Z,99144.75
2023-04-16T14:53:16.360Z,99147.97
2023-04-16T14:55:45.476Z,99145.22
2023-04-16T14:58:14.219Z,99146.78
2023-04-16T15:00:44.762Z,99144.19
2023-04-16T15:03:13.754Z,99143.63
2023-04-16T15:05:42.669Z,99141.72
2023-04-16T15:08:11.387Z,99143.03
2023-04-16T15:10:42.533Z,99151.72
2023-04-16T15:13:12.358Z,99150.84
2023-04-16T15:15:41.174Z,99146.47
2023-04-16T15:18:11.732Z,99151.34
2023-04-16T15:20:40.583Z,99150.94
2023-04-16T15:23:09.413Z,99155.97
2023-04-16T15:25:38.161Z,99152.19
2023-04-16T15:28:07.061Z,99154.78
2023-04-16T15:30:35.992Z,99162.84
2023-04-16T15:33:04.807Z,99164.41
2023-04-16T15:35:36.680Z,99170.19
2023-04-16T15:38:06.160Z,99170.72
2023-04-16T15:40:35.162Z,99173.75
2023-04-16T15:43:04.195Z,99173.41
2023-04-16T15:45:33.077Z,99174.69
2023-04-16T15:48:01.933Z,99176.53
2023-04-16T15:50:31.056Z,99182.16
2023-04-16T15:53:01.228Z,99182.03
2023-04-16T15:55:30.612Z,99183.06
2023-04-16T15:57:59.422Z,99182.44
2023-04-16T16:00:28.383Z,99189.13
2023-04-16T16:02:58.357Z,99188.63
2023-04-16T16:05:27.286Z,99188.66
2023-04-16T16:07:56.111Z,99196.06
2023-04-16T16:10:26.525Z,99192.81
2023-04-16T16:12:55.334Z,99193.75
2023-04-16T16:15:24.206Z,99202.03
2023-04-16T16:17:53.611Z,99201.34
2023-04-16T16:20:23.455Z,99201.78
2023-04-16T16:22:53.858Z,99206.31
2023-04-16T16:25:23.356Z,99202.22
2023-04-16T16:27:53.610Z,99199.78
2023-04-16T16:30:22.510Z,99207.78
2023-04-16T16:32:51.277Z,99203.84
2023-04-16T16:35:20.404Z,99207.47
2023-04-16T16:37:49.198Z,99214.97
2023-04-16T16:40:18.001Z,99222.34
2023-04-16T16:42:47.253Z,99219.03
2023-04-16T16:45:17.898Z,99224.16
2023-04-16T16:47:48.878Z,99224.41
2023-04-16T16:50:18.028Z,99224.78
2023-04-16T16:52:47.930Z,99226.31
2023-04-16T16:55:18.823Z,99236.31
2023-04-16T16:57:48.946Z,99234.53
2023-04-16T17:00:21.576Z,99243.56
2023-04-16T17:02:51.991Z,99249.75
2023-04-16T17:05:22.258Z,99241.75
2023-04-16T17:07:51.176Z,99248.72
2023-04-16T17:10:21.341Z,99251.41
2023-04-16T17:12:51.982Z,99248.28
2023-04-16T17:15:23.357Z,99253.41
2023-04-16T17:17:52.250Z,99255.69
2023-04-16T17:20:21.123Z,99254.78
2023-04-16T17:22:51.224Z,99258.41
2023-04-16T17:25:20.365Z,99251.13
2023-04-16T17:27:50.409Z,99260.69
2023-04-16T17:30:20.932Z,99260.84
2023-04-16T17:32:53.956Z,99265.16
2023-04-16T17:35:27.430Z,99265.31
2023-04-16T17:37:59.034Z,99274.03
2023-04-16T17:40:29.175Z,99274.94
2023-04-16T17:42:58.297Z,99272.63
2023-04-16T17:45:27.303Z,99264.13
2023-04-16T17:47:57.630Z,99273.56
2023-04-16T17:50:28.502Z,99278.75
2023-04-16T17:52:58.170Z,99275.34
2023-04-16T17:55:27.104Z,99278.88
2023-04-16T17:57:56.024Z,99283.53
2023-04-16T18:00:26.035Z,99284.59
2023-04-16T18:02:56.976Z,99292.66
2023-04-16T18:05:26.198Z,99293.16
2023-04-16T18:07:55.480Z,99293.31
2023-04-16T18:10:24.567Z,99298.53
2023-04-16T18:12:53.468Z,99296.56
2023-04-16T18:15:23.269Z,99300.41
2023-04-16T18:17:51.985Z,99302.41
2023-04-16T18:20:22.415Z,99309.28
2023-04-16T18:22:51.199Z,99309.88
2023-04-16T18:25:29.458Z,99310.59
2023-04-16T18:28:03.770Z,99310.34
2023-04-16T18:30:32.778Z,99311.41
2023-04-16T18:35:34.856Z,99325.50
2023-04-16T18:38:05.042Z,99320.16
2023-04-16T18:40:36.610Z,99318.97
2023-04-16T18:43:05.791Z,99321.53
2023-04-16T18:45:37.133Z,99331.13
2023-04-16T18:48:06.493Z,99333.09
2023-04-16T18:50:37.167Z,99335.78
2023-04-16T18:53:05.878Z,99334.03
2023-04-16T18:55:34.602Z,99336.38
2023-04-16T18:58:03.408Z,99333.69
2023-04-16T19:00:32.114Z,99339.19
2023-04-16T19:03:05.691Z,99335.31
2023-04-16T19:06:24.026Z,99339.06
2023-04-16T19:08:55.947Z,99338.78
2023-04-16T19:11:24.753Z,99341.75
2023-04-16T19:13:55.777Z,99335.91
2023-04-16T19:16:24.635Z,99340.69
2023-04-16T19:18:53.500Z,99342.06
2023-04-16T19:21:24.223Z,99344.88
2023-04-16T19:23:54.324Z,99344.16
2023-04-16T19:26:23.104Z,99339.59
2023-04-16T19:28:51.964Z,99348.22
2023-04-16T19:31:21.040Z,99348.84
2023-04-16T19:33:58.112Z,99346.28
2023-04-16T19:36:29.206Z,99342.97
2023-04-16T19:38:58.041Z,99338.69
2023-04-16T19:41:26.804Z,99343.91
2023-04-16T19:43:56.751Z,99345.53
2023-04-16T19:46:25.958Z,99343.47
2023-04-16T19:48:54.695Z,99347.19
2023-04-16T19:51:23.417Z,99349.88
2023-04-16T19:53:54.993Z,99351.03
2023-04-16T19:56:24.019Z,99352.66
2023-04-16T19:58:52.760Z,99352.06
2023-04-16T20:01:21.581Z,99352.78
2023-04-16T20:03:50.431Z,99355.34
2023-04-16T20:06:19.124Z,99359.06
2023-04-16T20:08:48.020Z,99360.59
2023-04-16T20:11:18.823Z,99358.38
2023-04-16T20:13:48.542Z,99364.22
2023-04-16T20:16:17.586Z,99360.72
2023-04-16T20:18:46.302Z,99366.41
2023-04-16T20:21:15.299Z,99360.94
2023-04-16T20:23:43.990Z,99362.69
2023-04-16T20:26:18.370Z,99357.69
2023-04-16T20:28:47.181Z,99353.13
2023-04-16T20:31:15.952Z,99357.69
2023-04-16T20:33:44.919Z,99354.31
2023-04-16T20:36:13.675Z,99353.84
2023-04-16T20:38:43.695Z,99355.25
2023-04-16T20:41:16.895Z,99358.50
2023-04-16T20:43:50.146Z,99352.91
2023-04-16T20:46:19.728Z,99366.56
2023-04-16T20:48:49.466Z,99357.47
2023-04-16T20:51:18.711Z,99353.72
2023-04-16T20:53:47.357Z,99360.72
2023-04-16T20:56:16.019Z,99370.75
2023-04-16T20:58:46.492Z,99361.31
2023-04-16T21:01:15.589Z,99370.28
2023-04-16T21:03:44.522Z,99368.41
2023-04-16T21:06:14.499Z,99368.66
2023-04-16T21:08:43.172Z,99371.88
2023-04-16T21:11:12.433Z,99367.81
2023-04-16T21:13:41.173Z,99369.06
2023-04-16T21:16:12.557Z,99369.56
2023-04-16T21:18:41.619Z,99373.97
2023-04-16T21:21:10.350Z,99369.06
2023-04-16T21:23:38.998Z,99371.41
2023-04-16T21:26:08.853Z,99375.69
2023-04-16T21:28:37.660Z,99372.78
2023-04-16T21:31:06.713Z,99375.69
2023-04-16T21:33:36.879Z,99375.56
2023-04-16T21:36:05.987Z,99373.41
2023-04-16T21:38:34.683Z,99371.63
2023-04-16T21:41:03.840Z,99373.94
2023-04-16T21:43:32.659Z,99369.88
2023-04-16T21:46:01.665Z,99371.72
2023-04-16T21:48:30.404Z,99372.53
2023-04-16T21:51:06.600Z,99371.84
2023-04-16T21:53:36.980Z,99374.19
2023-04-16T21:56:06.233Z,99372.66
2023-04-16T21:58:35.019Z,99374.22
2023-04-16T22:01:03.822Z,99372.53
2023-04-16T22:03:33.647Z,99375.84
2023-04-16T22:06:05.371Z,99377.19
2023-04-16T22:08:34.710Z,99373.94
2023-04-16T22:11:04.518Z,99371.03
2023-04-16T22:13:33.442Z,99371.41
2023-04-16T22:16:02.553Z,99378.75
2023-04-16T22:18:33.849Z,99377.91
2023-04-16T22:21:05.472Z,99374.22
2023-04-16T22:23:34.333Z,99374.22
2023-04-16T22:26:04.172Z,99377.19
2023-04-16T22:28:32.900Z,99374.75
2023-04-16T22:31:01.666Z,99374.50
2023-04-16T22:33:31.155Z,99368.56
2023-04-16T22:36:01.322Z,99376.03
2023-04-16T22:38:31.537Z,99371.59
2023-04-16T22:41:00.195Z,99372.16
2023-04-16T22:43:30.004Z,99371.22
2023-04-16T22:46:06.758Z,99372.94
2023-04-16T22:48:38.187Z,99374.22
2023-04-16T22:51:09.949Z,99367.09
2023-04-16T22:53:40.032Z,99377.13
2023-04-16T22:56:09.295Z,99374.75
2023-04-16T22:58:38.484Z,99374.03
2023-04-16T23:01:07.324Z,99368.22
2023-04-16T23:03:36.195Z,99371.03
2023-04-16T23:06:05.193Z,99366.28
2023-04-16T23:08:34.007Z,99368.97
2023-04-16T23:11:04.309Z,99374.03
2023-04-16T23:13:33.073Z,99369.34
2023-04-16T23:16:02.194Z,99370.03
2023-04-16T23:18:31.385Z,99376.56
2023-04-16T23:21:00.178Z,99375.94
2023-04-16T23:23:28.896Z,99376.09
2023-04-16T23:25:57.527Z,99366.03
2023-04-16T23:28:27.622Z,99378.38
2023-04-16T23:30:56.365Z,99376.75
2023-04-16T23:33:25.236Z,99376.75
2023-04-16T23:35:53.961Z,99375.63
2023-04-16T23:38:22.734Z,99377.56
2023-04-16T23:40:51.595Z,99374.38
2023-04-16T23:43:20.332Z,99377.19
2023-04-16T23:45:50.555Z,99372.44
2023-04-16T23:48:19.249Z,99373.94
2023-04-16T23:50:49.116Z,99367.38
2023-04-16T23:53:17.837Z,99369.75
2023-04-16T23:55:46.554Z,99373.94
2023-04-16T23:58:15.303Z,99366.47
